createdAt,value
2018-07-07T00:00:30.660Z,69.20
2018-07-07T00:02:59.161Z,69.50
2018-07-07T00:05:27.641Z,69.60
2018-07-07T00:20:56.374Z,69.50
2018-07-07T00:23:24.832Z,73.50
2018-07-07T00:25:54.658Z,73.40
2018-07-07T00:28:23.113Z,72.80
2018-07-07T00:30:51.691Z,72.70
2018-07-07T00:33:21.063Z,72.80
2018-07-07T00:35:50.497Z,73.00
2018-07-07T00:38:24.341Z,72.70
2018-07-07T00:40:53.791Z,72.90
2018-07-07T00:43:22.478Z,72.70
2018-07-07T00:45:50.932Z,72.00
2018-07-07T00:48:20.094Z,72.50
2018-07-07T00:50:48.627Z,72.70
2018-07-07T00:53:17.044Z,72.90
2018-07-07T00:55:49.905Z,72.90
2018-07-07T00:58:18.334Z,73.00
2018-07-07T01:00:50.961Z,73.20
2018-07-07T01:03:19.882Z,73.50
2018-07-07T01:05:50.546Z,73.30
2018-07-07T01:08:19.708Z,73.60
2018-07-07T01:10:48.114Z,73.70
2018-07-07T01:13:16.537Z,74.10
2018-07-07T01:15:45.354Z,74.30
2018-07-07T01:18:14.174Z,74.60
2018-07-07T01:20:42.612Z,74.80
2018-07-07T01:23:12.038Z,75.00
2018-07-07T01:25:41.155Z,75.10
2018-07-07T01:28:10.217Z,75.50
2018-07-07T01:30:39.064Z,76.00
2018-07-07T01:33:07.484Z,76.50
2018-07-07T01:35:36.492Z,76.90
2018-07-07T01:38:04.933Z,76.70
2018-07-07T01:40:33.396Z,76.70
2018-07-07T01:43:02.634Z,76.80
2018-07-07T01:45:35.601Z,77.00
2018-07-07T01:48:04.818Z,77.00
2018-07-07T01:50:33.238Z,76.70
2018-07-07T01:53:03.366Z,76.30
2018-07-07T01:55:32.649Z,76.80
2018-07-07T01:58:01.540Z,77.00
2018-07-07T02:00:34.633Z,77.20
2018-07-07T02:03:02.969Z,77.70
2018-07-07T02:05:31.407Z,78.00
2018-07-07T02:08:00.416Z,78.10
2018-07-07T02:10:28.922Z,78.00
2018-07-07T02:12:57.304Z,78.10
2018-07-07T02:15:26.099Z,78.50
2018-07-07T02:17:59.393Z,78.80
2018-07-07T02:20:27.916Z,79.20
2018-07-07T02:22:57.093Z,79.30
2018-07-07T02:25:25.502Z,79.30
2018-07-07T02:27:53.980Z,79.20
2018-07-07T02:30:27.662Z,79.50
2018-07-07T02:32:56.131Z,79.40
2018-07-07T02:35:24.724Z,79.50
2018-07-07T02:37:53.182Z,79.10
2018-07-07T02:40:21.632Z,79.20
2018-07-07T02:42:50.922Z,79.10
2018-07-07T02:45:19.677Z,78.80
2018-07-07T02:47:48.090Z,78.90
2018-07-07T03:00:01.657Z,78.20
2018-07-07T03:02:30.715Z,81.50
2018-07-07T03:05:00.051Z,80.90
2018-07-07T03:07:29.145Z,80.90
2018-07-07T03:09:57.585Z,80.40
2018-07-07T03:12:26.021Z,79.70
2018-07-07T03:14:55.154Z,79.50
2018-07-07T03:17:27.764Z,79.60
2018-07-07T03:19:56.194Z,79.50
2018-07-07T03:22:24.631Z,79.50
2018-07-07T03:24:54.185Z,79.60
2018-07-07T03:27:23.137Z,79.30
2018-07-07T03:30:03.817Z,79.30
2018-07-07T03:32:33.017Z,79.10
2018-07-07T03:35:02.586Z,78.80
2018-07-07T03:40:00.513Z,79.10
2018-07-07T03:42:29.668Z,78.90
2018-07-07T03:44:58.241Z,78.80
2018-07-07T03:47:28.641Z,78.80
2018-07-07T03:49:57.188Z,79.00
2018-07-07T03:52:29.613Z,78.40
2018-07-07T03:54:58.176Z,78.60
2018-07-07T03:57:26.650Z,78.50
2018-07-07T03:59:55.272Z,78.10
2018-07-07T04:02:23.857Z,78.30
2018-07-07T04:04:52.269Z,78.50
2018-07-07T04:07:22.301Z,79.10
2018-07-07T04:09:57.807Z,78.30
2018-07-07T04:12:26.348Z,77.70
2018-07-07T04:14:54.784Z,77.80
2018-07-07T04:17:30.316Z,77.90
2018-07-07T04:19:59.372Z,77.90
2018-07-07T04:22:28.744Z,77.90
2018-07-07T04:24:57.211Z,78.00
2018-07-07T04:27:28.588Z,78.00
2018-07-07T04:29:57.039Z,78.30
2018-07-07T04:32:25.460Z,78.30
2018-07-07T04:34:53.979Z,78.00
2018-07-07T04:37:23.712Z,77.50
2018-07-07T04:39:52.227Z,77.70
2018-07-07T04:42:22.312Z,77.90
2018-07-07T04:47:18.940Z,78.10
2018-07-07T04:49:47.387Z,78.30
2018-07-07T04:52:15.954Z,77.90
2018-07-07T04:57:12.473Z,78.50
2018-07-07T04:59:40.985Z,78.80
2018-07-07T05:02:09.436Z,78.60
2018-07-07T05:04:37.950Z,78.20
2018-07-07T05:07:06.329Z,78.80
2018-07-07T05:09:34.776Z,78.90
2018-07-07T05:12:03.215Z,78.60
2018-07-07T05:14:31.680Z,78.20
2018-07-07T05:17:00.471Z,78.70
2018-07-07T05:19:29.773Z,78.80
2018-07-07T05:21:58.188Z,78.80
2018-07-07T05:24:27.632Z,78.20
2018-07-07T05:26:56.407Z,78.80
2018-07-07T05:29:25.859Z,78.50
2018-07-07T05:31:54.411Z,78.00
2018-07-07T05:34:22.810Z,78.30
2018-07-07T05:36:51.522Z,78.60
2018-07-07T05:39:20.949Z,78.00
2018-07-07T05:41:49.476Z,77.80
2018-07-07T05:44:17.905Z,77.40
2018-07-07T05:46:50.939Z,77.10
2018-07-07T05:49:20.091Z,76.70
2018-07-07T05:51:49.006Z,76.40
2018-07-07T05:54:18.679Z,76.40
2018-07-07T05:56:47.273Z,76.00
2018-07-07T05:59:16.370Z,75.90
2018-07-07T06:01:44.927Z,75.60
2018-07-07T06:04:18.245Z,75.00
2018-07-07T06:06:46.891Z,74.70
2018-07-07T06:19:06.483Z,74.20
2018-07-07T06:21:35.245Z,75.40
2018-07-07T06:24:03.872Z,74.40
2018-07-07T06:26:32.460Z,73.80
2018-07-07T06:29:01.619Z,73.90
2018-07-07T06:31:30.556Z,73.00
2018-07-07T06:33:59.006Z,72.30
2018-07-07T06:36:28.658Z,71.50
2018-07-07T06:38:57.199Z,71.20
2018-07-07T06:41:30.801Z,71.00
2018-07-07T06:43:59.283Z,71.00
2018-07-07T06:46:28.510Z,70.00
2018-07-07T06:48:57.132Z,69.90
2018-07-07T06:51:26.210Z,69.70
2018-07-07T06:53:54.812Z,69.50
2018-07-07T06:56:23.239Z,68.70
2018-07-07T06:58:52.064Z,69.30
2018-07-07T07:01:21.475Z,68.40
2018-07-07T07:03:49.917Z,67.80
2018-07-07T07:06:19.252Z,67.80
2018-07-07T07:08:48.908Z,67.20
2018-07-07T07:11:17.341Z,67.00
2018-07-07T07:13:45.792Z,67.40
2018-07-07T07:16:14.230Z,66.20
2018-07-07T07:18:42.681Z,66.30
2018-07-07T07:21:11.157Z,65.40
2018-07-07T07:23:39.593Z,66.20
2018-07-07T07:26:08.194Z,66.90
2018-07-07T07:28:36.750Z,66.30
2018-07-07T07:31:06.070Z,66.20
2018-07-07T07:33:34.549Z,66.10
2018-07-07T07:36:06.735Z,65.00
2018-07-07T07:38:35.162Z,65.20
2018-07-07T07:41:03.613Z,64.70
2018-07-07T07:43:32.336Z,66.10
2018-07-07T07:46:05.271Z,65.40
2018-07-07T07:48:34.553Z,64.20
2018-07-07T07:51:03.019Z,64.90
2018-07-07T07:53:31.460Z,65.10
2018-07-07T07:55:59.893Z,65.10
2018-07-07T07:58:29.587Z,64.80
2018-07-07T08:00:58.074Z,64.20
2018-07-07T08:03:26.522Z,64.20
2018-07-07T08:05:54.950Z,63.20
2018-07-07T08:08:24.085Z,63.10
2018-07-07T08:10:52.514Z,62.00
2018-07-07T08:13:20.919Z,61.90
2018-07-07T08:15:49.356Z,61.40
2018-07-07T08:18:17.802Z,60.80
2018-07-07T08:20:46.246Z,60.50
2018-07-07T08:23:14.673Z,59.50
2018-07-07T08:25:43.173Z,59.10
2018-07-07T08:28:11.616Z,59.10
2018-07-07T08:30:40.176Z,58.00
2018-07-07T08:33:08.637Z,58.50
2018-07-07T08:35:37.746Z,57.80
2018-07-07T08:38:07.301Z,57.20
2018-07-07T08:40:36.795Z,57.20
2018-07-07T08:43:05.841Z,58.10
2018-07-07T08:45:34.317Z,58.50
2018-07-07T08:48:03.314Z,57.10
2018-07-07T08:51:09.673Z,56.70
2018-07-07T08:53:38.111Z,56.40
2018-07-07T08:56:06.544Z,56.30
2018-07-07T08:58:35.016Z,56.60
2018-07-07T09:01:10.752Z,55.90
2018-07-07T09:13:29.248Z,55.90
2018-07-07T09:18:26.022Z,54.20
2018-07-07T09:20:54.438Z,54.30
2018-07-07T09:23:22.901Z,54.60
2018-07-07T09:25:52.012Z,54.70
2018-07-07T09:28:20.458Z,55.20
2018-07-07T09:30:49.433Z,54.70
2018-07-07T09:33:17.839Z,54.30
2018-07-07T09:35:47.040Z,52.80
2018-07-07T09:38:16.618Z,52.40
2018-07-07T09:40:45.208Z,51.80
2018-07-07T09:43:13.960Z,50.90
2018-07-07T09:45:42.396Z,49.20
2018-07-07T09:48:11.028Z,50.80
2018-07-07T09:50:39.814Z,51.60
2018-07-07T09:53:08.278Z,52.10
2018-07-07T09:55:36.843Z,52.80
2018-07-07T09:58:05.771Z,52.10
2018-07-07T10:00:39.557Z,51.30
2018-07-07T10:03:08.495Z,50.10
2018-07-07T10:05:37.265Z,50.00
2018-07-07T10:08:05.794Z,50.70
2018-07-07T10:10:35.459Z,49.70
2018-07-07T10:13:05.188Z,49.20
2018-07-07T10:15:34.289Z,47.90
2018-07-07T10:20:30.861Z,47.60
2018-07-07T10:22:59.423Z,47.60
2018-07-07T10:25:27.983Z,48.90
2018-07-07T10:27:56.424Z,48.70
2018-07-07T10:30:25.140Z,47.90
2018-07-07T10:32:53.574Z,47.50
2018-07-07T10:35:22.142Z,46.70
2018-07-07T10:37:50.572Z,46.90
2018-07-07T10:40:19.328Z,47.90
2018-07-07T10:42:48.071Z,47.90
2018-07-07T10:45:19.520Z,47.60
2018-07-07T10:47:47.982Z,47.40
2018-07-07T10:50:16.516Z,46.40
2018-07-07T10:52:44.981Z,45.70
2018-07-07T10:55:13.425Z,46.40
2018-07-07T10:57:42.206Z,45.90
2018-07-07T11:00:10.668Z,46.20
2018-07-07T11:02:39.264Z,45.20
2018-07-07T11:05:07.985Z,46.50
2018-07-07T11:07:36.990Z,44.70
2018-07-07T11:10:05.588Z,45.60
2018-07-07T11:12:34.029Z,44.50
2018-07-07T11:15:02.553Z,44.60
2018-07-07T11:17:31.012Z,44.50
2018-07-07T11:19:59.609Z,45.80
2018-07-07T11:22:28.096Z,45.50
2018-07-07T11:24:56.629Z,45.20
2018-07-07T11:27:25.113Z,43.60
2018-07-07T11:29:54.164Z,43.60
2018-07-07T11:32:22.672Z,44.40
2018-07-07T11:34:51.122Z,43.80
2018-07-07T11:37:19.557Z,43.80
2018-07-07T11:39:48.102Z,43.20
2018-07-07T11:42:16.690Z,44.20
2018-07-07T11:44:45.793Z,43.70
2018-07-07T12:00:23.485Z,43.80
2018-07-07T12:02:51.959Z,44.30
2018-07-07T12:05:20.632Z,43.50
2018-07-07T12:08:00.712Z,43.20
2018-07-07T12:10:17.704Z,43.30
2018-07-07T12:12:46.160Z,44.10
2018-07-07T12:15:14.641Z,42.70
2018-07-07T12:17:43.653Z,43.80
2018-07-07T12:20:12.142Z,43.70
2018-07-07T12:22:40.625Z,42.10
2018-07-07T12:25:10.109Z,42.80
2018-07-07T12:27:38.546Z,42.60
2018-07-07T12:30:07.017Z,43.80
2018-07-07T12:32:36.235Z,42.30
2018-07-07T12:35:04.709Z,40.90
2018-07-07T12:37:33.257Z,42.00
2018-07-07T12:40:01.784Z,41.90
2018-07-07T12:42:31.392Z,42.20
2018-07-07T12:45:00.024Z,41.30
2018-07-07T12:47:28.749Z,41.90
2018-07-07T12:49:57.234Z,40.40
2018-07-07T12:52:27.167Z,41.10
2018-07-07T12:54:55.714Z,41.70
2018-07-07T12:57:24.237Z,41.40
2018-07-07T12:59:53.193Z,41.30
2018-07-07T13:02:21.910Z,42.80
2018-07-07T13:04:50.430Z,41.80
2018-07-07T13:09:47.069Z,41.80
2018-07-07T13:12:16.333Z,42.00
2018-07-07T13:14:44.787Z,42.50
2018-07-07T13:17:17.948Z,42.50
2018-07-07T13:19:46.392Z,41.10
2018-07-07T13:22:15.618Z,41.40
2018-07-07T13:24:44.093Z,40.90
2018-07-07T13:27:12.545Z,40.60
2018-07-07T13:29:41.101Z,40.60
2018-07-07T13:32:10.642Z,40.80
2018-07-07T13:34:39.782Z,40.60
2018-07-07T13:37:08.280Z,40.80
2018-07-07T13:39:39.245Z,41.20
2018-07-07T13:42:09.010Z,40.10
2018-07-07T13:44:37.562Z,40.40
2018-07-07T13:47:06.388Z,40.90
2018-07-07T13:49:34.966Z,40.10
2018-07-07T13:52:03.477Z,39.30
2018-07-07T13:54:32.379Z,40.70
2018-07-07T13:57:00.881Z,40.30
2018-07-07T13:59:29.364Z,41.00
2018-07-07T14:01:57.862Z,40.20
2018-07-07T14:04:26.344Z,40.80
2018-07-07T14:06:55.717Z,39.50
2018-07-07T14:09:24.211Z,39.70
2018-07-07T14:11:53.057Z,38.80
2018-07-07T14:14:21.614Z,38.50
2018-07-07T14:16:50.204Z,38.40
2018-07-07T14:19:19.601Z,38.70
2018-07-07T14:21:48.064Z,38.80
2018-07-07T14:24:16.708Z,38.00
2018-07-07T14:26:46.185Z,38.40
2018-07-07T14:29:14.952Z,37.90
2018-07-07T14:31:43.395Z,37.50
2018-07-07T14:34:17.144Z,38.80
2018-07-07T14:36:45.557Z,38.40
2018-07-07T14:39:14.274Z,37.80
2018-07-07T14:41:42.817Z,38.90
2018-07-07T14:44:11.651Z,38.60
2018-07-07T14:46:40.157Z,38.70
2018-07-07T14:49:08.685Z,37.90
2018-07-07T14:54:09.309Z,38.50
2018-07-07T14:56:37.793Z,38.70
2018-07-07T14:59:06.994Z,37.60
2018-07-07T15:01:36.144Z,38.80
2018-07-07T15:17:09.353Z,38.20
2018-07-07T15:19:37.956Z,40.00
2018-07-07T15:22:06.857Z,39.70
2018-07-07T15:24:35.289Z,40.60
2018-07-07T15:27:03.877Z,39.90
2018-07-07T15:29:32.544Z,40.00
2018-07-07T15:32:01.056Z,40.00
2018-07-07T15:34:29.610Z,39.60
2018-07-07T15:36:59.302Z,40.90
2018-07-07T15:39:36.013Z,40.00
2018-07-07T15:42:04.809Z,40.30
2018-07-07T15:44:34.533Z,39.80
2018-07-07T15:47:03.041Z,40.00
2018-07-07T16:02:37.739Z,40.60
2018-07-07T16:05:06.595Z,42.60
2018-07-07T16:07:35.628Z,42.90
2018-07-07T16:10:04.508Z,42.20
2018-07-07T16:12:33.644Z,42.10
2018-07-07T16:15:02.079Z,41.50
2018-07-07T16:17:30.516Z,41.70
2018-07-07T16:19:59.090Z,41.70
2018-07-07T16:22:27.834Z,42.10
2018-07-07T16:24:56.353Z,41.80
2018-07-07T16:27:24.817Z,41.70
2018-07-07T16:29:53.244Z,42.20
2018-07-07T16:32:21.727Z,42.80
2018-07-07T16:34:50.229Z,42.40
2018-07-07T16:37:18.707Z,42.60
2018-07-07T16:39:47.789Z,42.10
2018-07-07T16:42:16.746Z,42.80
2018-07-07T16:44:47.153Z,42.20
2018-07-07T16:47:16.503Z,42.50
2018-07-07T16:49:45.037Z,42.70
2018-07-07T16:52:13.529Z,42.70
2018-07-07T16:54:43.553Z,43.00
2018-07-07T16:57:14.998Z,43.30
2018-07-07T16:59:43.512Z,42.90
2018-07-07T17:02:12.757Z,43.50
2018-07-07T17:04:41.588Z,43.40
2018-07-07T17:07:10.131Z,43.30
2018-07-07T17:09:38.831Z,43.60
2018-07-07T17:12:07.358Z,44.10
2018-07-07T17:14:36.046Z,44.20
2018-07-07T17:17:04.769Z,44.40
2018-07-07T17:19:33.401Z,44.60
2018-07-07T17:22:02.292Z,45.00
2018-07-07T17:24:31.805Z,45.30
2018-07-07T17:27:00.792Z,46.20
2018-07-07T17:29:29.282Z,47.90
2018-07-07T17:31:58.265Z,46.80
2018-07-07T17:34:27.408Z,47.10
2018-07-07T17:36:56.464Z,47.70
2018-07-07T17:39:25.074Z,48.40
2018-07-07T17:41:57.883Z,47.70
2018-07-07T17:44:26.388Z,48.00
2018-07-07T17:46:55.276Z,47.80
2018-07-07T17:49:23.941Z,48.30
2018-07-07T17:51:52.358Z,49.00
2018-07-07T17:54:21.289Z,48.40
2018-07-07T17:56:50.430Z,48.10
2018-07-07T17:59:19.009Z,48.70
2018-07-07T18:01:47.610Z,48.40
2018-07-07T18:04:16.142Z,48.40
2018-07-07T18:06:44.596Z,48.10
2018-07-07T18:09:13.681Z,48.30
2018-07-07T18:11:42.482Z,48.50
2018-07-07T18:14:12.372Z,48.60
2018-07-07T18:16:41.185Z,49.00
2018-07-07T18:19:09.774Z,49.70
2018-07-07T18:21:38.149Z,49.40
2018-07-07T18:24:06.670Z,48.80
2018-07-07T18:26:35.370Z,49.50
2018-07-07T18:29:04.048Z,49.60
2018-07-07T18:31:32.495Z,49.80
2018-07-07T18:34:00.995Z,50.80
2018-07-07T18:36:29.429Z,49.60
2018-07-07T18:38:57.917Z,49.20
2018-07-07T18:41:26.483Z,49.00
2018-07-07T18:43:55.012Z,49.50
2018-07-07T18:46:23.500Z,49.10
2018-07-07T18:48:51.978Z,49.00
2018-07-07T18:51:20.453Z,49.30
2018-07-07T18:53:49.725Z,49.20
2018-07-07T18:56:18.214Z,49.20
2018-07-07T18:58:46.689Z,49.50
2018-07-07T19:01:15.161Z,49.70
2018-07-07T19:03:43.738Z,49.60
2018-07-07T19:06:12.206Z,49.40
2018-07-07T19:08:40.691Z,49.10
2018-07-07T19:11:09.489Z,48.60
2018-07-07T19:13:38.613Z,49.10
2018-07-07T19:16:07.672Z,49.40
2018-07-07T19:18:36.136Z,49.40
2018-07-07T19:21:10.001Z,49.50
2018-07-07T19:23:43.778Z,49.70
2018-07-07T19:27:15.470Z,49.30
2018-07-07T19:29:43.928Z,49.40
2018-07-07T19:32:17.853Z,50.10
2018-07-07T19:34:51.784Z,50.00
2018-07-07T19:37:21.374Z,50.50
2018-07-07T19:39:49.900Z,50.60
2018-07-07T19:42:18.446Z,50.80
2018-07-07T19:44:47.278Z,51.30
2018-07-07T19:47:15.920Z,51.20
2018-07-07T19:49:44.420Z,51.50
2018-07-07T19:52:12.960Z,51.40
2018-07-07T19:54:41.408Z,51.20
2018-07-07T19:57:09.926Z,51.50
2018-07-07T19:59:42.138Z,51.40
2018-07-07T20:02:11.043Z,51.90
2018-07-07T20:04:39.492Z,51.20
2018-07-07T20:07:09.216Z,51.10
2018-07-07T20:09:37.696Z,50.80
2018-07-07T20:12:06.181Z,50.80
2018-07-07T20:14:34.752Z,51.00
2018-07-07T20:17:09.294Z,51.20
2018-07-07T20:20:58.555Z,51.20
2018-07-07T20:23:28.429Z,51.30
2018-07-07T20:26:04.548Z,51.40
2018-07-07T20:28:38.481Z,51.40
2018-07-07T20:31:07.704Z,51.70
2018-07-07T20:33:36.149Z,52.20
2018-07-07T20:36:09.457Z,51.90
2018-07-07T20:38:37.937Z,52.30
2018-07-07T20:41:06.543Z,52.30
2018-07-07T20:43:35.041Z,52.50
2018-07-07T20:46:03.569Z,52.80
2018-07-07T20:48:32.158Z,53.20
2018-07-07T20:51:01.433Z,53.50
2018-07-07T20:53:30.440Z,53.60
2018-07-07T20:55:58.932Z,53.90
2018-07-07T20:58:27.427Z,54.60
2018-07-07T21:00:56.665Z,54.60
2018-07-07T21:03:28.090Z,54.50
2018-07-07T21:05:56.689Z,54.60
2018-07-07T21:08:25.257Z,55.00
2018-07-07T21:10:54.356Z,54.70
2018-07-07T21:13:23.262Z,54.90
2018-07-07T21:15:51.719Z,55.10
2018-07-07T21:18:20.205Z,55.30
2018-07-07T21:20:48.685Z,55.70
2018-07-07T21:23:17.456Z,55.70
2018-07-07T21:25:46.212Z,56.50
2018-07-07T21:28:14.727Z,56.90
2018-07-07T21:30:43.791Z,57.10
2018-07-07T21:33:12.596Z,57.20
2018-07-07T21:35:41.096Z,57.20
2018-07-07T21:38:09.569Z,57.30
2018-07-07T21:40:38.081Z,57.40
2018-07-07T21:43:06.664Z,57.60
2018-07-07T21:45:35.174Z,57.60
2018-07-07T22:01:29.039Z,57.20
2018-07-07T22:04:02.844Z,59.50
2018-07-07T22:06:36.904Z,59.00
2018-07-07T22:09:05.473Z,59.00
2018-07-07T22:11:33.931Z,59.10
2018-07-07T22:14:02.382Z,59.20
2018-07-07T22:16:30.966Z,59.40
2018-07-07T22:18:59.498Z,59.50
2018-07-07T22:24:02.076Z,60.00
2018-07-07T22:26:31.084Z,60.10
2018-07-07T22:28:59.601Z,60.40
2018-07-07T22:31:28.054Z,60.00
2018-07-07T22:33:56.621Z,60.10
2018-07-07T22:36:30.743Z,60.50
2018-07-07T22:38:59.508Z,60.80
2018-07-07T22:41:54.876Z,61.80
2018-07-07T22:44:23.390Z,62.40
2018-07-07T22:46:53.189Z,62.50
2018-07-07T22:49:21.741Z,63.00
2018-07-07T22:51:50.183Z,63.40
2018-07-07T22:54:18.679Z,63.30
2018-07-07T22:56:47.597Z,63.60
2018-07-07T22:59:16.100Z,63.80
2018-07-07T23:01:44.602Z,63.80
2018-07-07T23:04:13.076Z,64.10
2018-07-07T23:06:43.645Z,64.50
2018-07-07T23:09:13.661Z,64.50
2018-07-07T23:11:42.104Z,64.60
2018-07-07T23:14:11.461Z,65.20
2018-07-07T23:16:39.917Z,65.20
2018-07-07T23:19:09.581Z,65.30
2018-07-07T23:21:39.165Z,65.70
2018-07-07T23:24:07.787Z,66.20
2018-07-07T23:26:36.225Z,66.40
2018-07-07T23:29:05.570Z,66.90
2018-07-07T23:31:35.462Z,67.00
2018-07-07T23:34:04.318Z,67.10
2018-07-07T23:36:33.141Z,67.40
2018-07-07T23:39:01.574Z,67.50
2018-07-07T23:41:30.188Z,67.60
2018-07-07T23:43:58.738Z,67.30
2018-07-07T23:46:27.243Z,66.90
2018-07-07T23:48:55.774Z,67.00
2018-07-07T23:51:25.233Z,67.70
2018-07-07T23:53:53.707Z,68.00
2018-07-07T23:56:22.160Z,68.50
2018-07-07T23:58:52.077Z,68.80
